createdAt,value
2018-01-04T00:00:19.729Z,74.24
2018-01-04T00:01:19.634Z,74.80
2018-01-04T00:02:19.551Z,74.24
2018-01-04T00:03:19.456Z,74.43
2018-01-04T00:04:19.367Z,74.62
2018-01-04T00:05:19.283Z,74.33
2018-01-04T00:06:19.195Z,74.43
2018-01-04T00:07:19.106Z,74.43
2018-01-04T00:08:19.011Z,74.43
2018-01-04T00:09:18.924Z,74.33
2018-01-04T00:10:18.842Z,74.14
2018-01-04T00:11:18.752Z,74.24
2018-01-04T00:12:18.666Z,74.43
2018-01-04T00:13:18.574Z,74.62
2018-01-04T00:14:18.487Z,74.43
2018-01-04T00:15:18.394Z,74.33
2018-01-04T00:16:18.302Z,74.90
2018-01-04T00:17:18.235Z,74.71
2018-01-04T00:18:18.133Z,74.99
2018-01-04T00:19:18.041Z,74.62
2018-01-04T00:20:17.950Z,74.62
2018-01-04T00:21:17.873Z,75.47
2018-01-04T00:22:17.778Z,75.28
2018-01-04T00:23:17.690Z,75.19
2018-01-04T00:24:17.600Z,75.28
2018-01-04T00:25:17.510Z,75.47
2018-01-04T00:26:17.421Z,75.85
2018-01-04T00:27:17.330Z,75.95
2018-01-04T00:28:17.241Z,75.28
2018-01-04T00:29:17.154Z,75.28
2018-01-04T00:30:17.063Z,75.76
2018-01-04T00:31:16.982Z,75.47
2018-01-04T00:32:16.886Z,75.57
2018-01-04T00:33:16.806Z,75.67
2018-01-04T00:34:16.717Z,75.19
2018-01-04T00:35:16.625Z,75.09
2018-01-04T00:36:16.545Z,74.99
2018-01-04T00:37:16.457Z,74.52
2018-01-04T00:38:16.361Z,74.71
2018-01-04T00:39:16.272Z,74.90
2018-01-04T00:40:16.191Z,74.71
2018-01-04T00:41:16.095Z,75.09
2018-01-04T00:42:16.010Z,74.62
2018-01-04T00:43:15.938Z,75.19
2018-01-04T00:44:15.834Z,75.19
2018-01-04T00:45:15.741Z,74.90
2018-01-04T00:46:15.652Z,74.52
2018-01-04T00:47:15.566Z,74.90
2018-01-04T00:48:15.475Z,74.99
2018-01-04T00:49:15.386Z,74.43
2018-01-04T00:50:15.299Z,74.43
2018-01-04T00:51:15.215Z,74.99
2018-01-04T00:52:15.123Z,74.90
2018-01-04T00:53:15.034Z,74.52
2018-01-04T00:54:14.950Z,74.24
2018-01-04T00:55:14.854Z,75.28
2018-01-04T00:56:14.803Z,74.94
2018-01-04T00:57:14.678Z,74.43
2018-01-04T00:58:14.588Z,74.14
2018-01-04T00:59:14.512Z,74.04
2018-01-04T01:00:14.416Z,74.33
2018-01-04T01:01:14.332Z,74.33
2018-01-04T01:02:14.244Z,74.14
2018-01-04T01:03:14.148Z,74.24
2018-01-04T01:04:14.077Z,74.33
2018-01-04T01:05:13.985Z,74.33
2018-01-04T01:06:13.891Z,74.33
2018-01-04T01:07:13.805Z,74.43
2018-01-04T01:08:13.714Z,74.14
2018-01-04T01:09:13.632Z,74.14
2018-01-04T01:10:13.532Z,74.33
2018-01-04T01:11:13.454Z,73.76
2018-01-04T01:12:13.360Z,73.57
2018-01-04T01:13:13.268Z,74.04
2018-01-04T01:14:13.180Z,74.14
2018-01-04T01:15:13.102Z,73.57
2018-01-04T01:16:13.002Z,73.95
2018-01-04T01:17:12.938Z,74.14
2018-01-04T01:18:12.825Z,73.19
2018-01-04T01:19:12.744Z,74.14
2018-01-04T01:20:12.649Z,73.57
2018-01-04T01:21:12.569Z,73.66
2018-01-04T01:22:12.473Z,73.38
2018-01-04T01:23:12.382Z,73.66
2018-01-04T01:24:12.297Z,73.47
2018-01-04T01:25:12.212Z,74.14
2018-01-04T01:26:12.132Z,74.52
2018-01-04T01:27:12.029Z,73.95
2018-01-04T01:28:11.947Z,74.33
2018-01-04T01:29:11.850Z,73.28
2018-01-04T01:30:11.784Z,73.76
2018-01-04T01:31:11.683Z,73.95
2018-01-04T01:32:11.586Z,73.95
2018-01-04T01:33:11.502Z,73.95
2018-01-04T01:34:11.414Z,74.43
2018-01-04T01:35:11.317Z,74.33
2018-01-04T01:36:11.234Z,74.24
2018-01-04T01:37:11.141Z,73.85
2018-01-04T01:38:11.054Z,74.14
2018-01-04T01:39:10.968Z,73.95
2018-01-04T01:40:10.874Z,74.04
2018-01-04T01:41:10.794Z,74.04
2018-01-04T01:42:10.702Z,74.33
2018-01-04T01:43:10.610Z,74.33
2018-01-04T01:44:10.522Z,74.62
2018-01-04T01:45:10.434Z,74.62
2018-01-04T01:46:10.351Z,75.19
2018-01-04T01:47:10.258Z,74.80
2018-01-04T01:48:10.172Z,74.90
2018-01-04T01:49:10.078Z,74.71
2018-01-04T01:50:09.994Z,74.90
2018-01-04T01:51:09.908Z,74.99
2018-01-04T01:52:09.814Z,74.52
2018-01-04T01:53:09.736Z,75.19
2018-01-04T01:54:09.638Z,74.99
2018-01-04T01:55:09.549Z,75.57
2018-01-04T01:56:09.462Z,75.09
2018-01-04T01:57:09.374Z,75.19
2018-01-04T01:58:09.283Z,75.57
2018-01-04T01:59:09.199Z,75.28
2018-01-04T02:00:09.111Z,75.38
2018-01-04T02:01:09.019Z,74.90
2018-01-04T02:02:08.933Z,74.71
2018-01-04T02:03:08.863Z,75.57
2018-01-04T02:04:08.747Z,75.67
2018-01-04T02:05:08.666Z,75.47
2018-01-04T02:06:08.573Z,75.57
2018-01-04T02:07:08.487Z,75.76
2018-01-04T02:08:08.395Z,75.85
2018-01-04T02:09:08.312Z,76.04
2018-01-04T02:10:08.225Z,76.52
2018-01-04T02:11:08.132Z,76.04
2018-01-04T02:12:08.043Z,76.81
2018-01-04T02:13:07.974Z,76.61
2018-01-04T02:14:07.869Z,77.00
2018-01-04T02:15:07.783Z,77.00
2018-01-04T02:16:07.686Z,76.90
2018-01-04T02:17:07.604Z,77.09
2018-01-04T02:18:07.508Z,77.00
2018-01-04T02:19:07.421Z,77.37
2018-01-04T02:20:07.331Z,77.95
2018-01-04T02:21:07.250Z,77.66
2018-01-04T02:22:07.156Z,77.76
2018-01-04T02:23:07.067Z,77.37
2018-01-04T02:24:06.979Z,77.37
2018-01-04T02:25:06.891Z,77.56
2018-01-04T02:26:06.805Z,77.47
2018-01-04T02:27:06.712Z,77.09
2018-01-04T02:28:06.618Z,77.19
2018-01-04T02:29:06.657Z,77.00
2018-01-04T02:30:06.444Z,77.00
2018-01-04T02:31:06.363Z,76.61
2018-01-04T02:32:06.271Z,76.71
2018-01-04T02:33:06.181Z,76.52
2018-01-04T02:34:06.087Z,76.90
2018-01-04T02:35:06.082Z,76.42
2018-01-04T02:36:06.009Z,76.90
2018-01-04T02:37:05.833Z,76.33
2018-01-04T02:38:05.736Z,76.23
2018-01-04T02:39:05.660Z,76.14
2018-01-04T02:40:05.558Z,75.95
2018-01-04T02:41:05.471Z,76.42
2018-01-04T02:42:05.384Z,76.23
2018-01-04T02:43:05.295Z,75.57
2018-01-04T02:44:05.209Z,75.95
2018-01-04T02:45:05.118Z,75.47
2018-01-04T02:46:05.025Z,75.76
2018-01-04T02:47:04.935Z,75.47
2018-01-04T02:48:04.853Z,75.09
2018-01-04T02:49:04.767Z,74.52
2018-01-04T02:50:04.680Z,74.90
2018-01-04T02:51:04.609Z,74.71
2018-01-04T02:52:04.496Z,74.90
2018-01-04T02:53:04.409Z,75.09
2018-01-04T02:54:04.320Z,74.99
2018-01-04T02:55:04.234Z,74.80
2018-01-04T02:56:04.161Z,74.80
2018-01-04T02:57:04.064Z,74.99
2018-01-04T02:58:03.992Z,74.62
2018-01-04T02:59:03.892Z,75.09
2018-01-04T03:00:03.795Z,75.09
2018-01-04T03:01:03.701Z,74.71
2018-01-04T03:02:03.617Z,74.24
2018-01-04T03:03:03.580Z,74.52
2018-01-04T03:04:03.435Z,74.80
2018-01-04T03:05:03.358Z,74.52
2018-01-04T03:06:03.272Z,74.24
2018-01-04T03:07:03.181Z,74.24
2018-01-04T03:08:03.082Z,74.43
2018-01-04T03:09:03.006Z,74.24
2018-01-04T03:10:02.908Z,73.85
2018-01-04T03:11:02.816Z,73.66
2018-01-04T03:12:02.777Z,73.28
2018-01-04T03:13:02.653Z,73.38
2018-01-04T03:14:02.560Z,73.47
2018-01-04T03:15:02.465Z,73.00
2018-01-04T03:16:02.369Z,73.19
2018-01-04T03:17:02.292Z,73.38
2018-01-04T03:18:02.197Z,73.66
2018-01-04T03:19:02.110Z,73.57
2018-01-04T03:20:02.026Z,73.28
2018-01-04T03:21:01.929Z,73.00
2018-01-04T03:22:01.845Z,72.62
2018-01-04T03:23:01.756Z,72.81
2018-01-04T03:24:01.668Z,72.90
2018-01-04T03:25:01.577Z,72.81
2018-01-04T03:26:01.484Z,72.81
2018-01-04T03:27:01.396Z,72.81
2018-01-04T03:28:01.311Z,72.81
2018-01-04T03:29:01.240Z,72.90
2018-01-04T03:30:01.131Z,72.81
2018-01-04T03:31:01.041Z,73.00
2018-01-04T03:32:00.958Z,72.81
2018-01-04T03:33:00.869Z,72.52
2018-01-04T03:34:00.812Z,72.81
2018-01-04T03:35:00.709Z,73.66
2018-01-04T03:36:00.597Z,73.28
2018-01-04T03:37:00.510Z,73.47
2018-01-04T03:38:00.429Z,73.76
2018-01-04T03:39:00.330Z,73.57
2018-01-04T03:40:00.270Z,73.47
2018-01-04T03:41:00.174Z,73.57
2018-01-04T03:42:00.068Z,73.47
2018-01-04T03:42:59.973Z,73.66
2018-01-04T03:43:59.896Z,74.04
2018-01-04T03:44:59.805Z,73.47
2018-01-04T03:45:59.710Z,74.43
2018-01-04T03:46:59.620Z,73.95
2018-01-04T03:47:59.529Z,74.52
2018-01-04T03:48:59.453Z,74.24
2018-01-04T03:49:59.356Z,74.52
2018-01-04T03:50:59.264Z,74.52
2018-01-04T03:51:59.172Z,74.43
2018-01-04T03:52:59.089Z,74.99
2018-01-04T03:54:00.155Z,74.52
2018-01-04T03:54:58.906Z,74.52
2018-01-04T03:55:58.840Z,75.47
2018-01-04T03:56:58.731Z,75.34
2018-01-04T03:57:58.634Z,74.43
2018-01-04T03:58:58.553Z,74.99
2018-01-04T03:59:58.461Z,74.80
2018-01-04T04:00:58.376Z,75.57
2018-01-04T04:01:58.290Z,74.62
2018-01-04T04:02:58.191Z,74.43
2018-01-04T04:03:58.106Z,74.99
2018-01-04T04:04:58.035Z,75.09
2018-01-04T04:05:57.931Z,74.96
2018-01-04T04:06:57.834Z,74.96
2018-01-04T04:07:57.745Z,74.96
2018-01-04T04:08:57.662Z,74.77
2018-01-04T04:09:57.572Z,74.48
2018-01-04T04:10:57.481Z,74.39
2018-01-04T04:11:57.392Z,74.67
2018-01-04T04:12:57.305Z,75.34
2018-01-04T04:13:57.216Z,75.24
2018-01-04T04:14:57.135Z,75.43
2018-01-04T04:15:57.033Z,74.77
2018-01-04T04:16:56.942Z,75.24
2018-01-04T04:17:56.984Z,75.34
2018-01-04T04:18:56.779Z,75.53
2018-01-04T04:19:56.678Z,76.01
2018-01-04T04:20:56.585Z,75.53
2018-01-04T04:21:56.497Z,75.81
2018-01-04T04:22:56.405Z,75.91
2018-01-04T04:23:56.321Z,75.34
2018-01-04T04:24:56.265Z,75.72
2018-01-04T04:25:56.150Z,76.10
2018-01-04T04:26:56.052Z,76.39
2018-01-04T04:27:55.964Z,76.86
2018-01-04T04:28:55.876Z,76.29
2018-01-04T04:29:55.791Z,76.86
2018-01-04T04:30:55.690Z,77.05
2018-01-04T04:31:55.610Z,77.34
2018-01-04T04:32:55.583Z,77.43
2018-01-04T04:33:55.432Z,77.91
2018-01-04T04:34:55.342Z,78.10
2018-01-04T04:35:55.246Z,78.19
2018-01-04T04:36:55.157Z,78.19
2018-01-04T04:37:55.066Z,78.67
2018-01-04T04:38:54.979Z,78.77
2018-01-04T04:39:54.902Z,78.19
2018-01-04T04:40:54.803Z,78.96
2018-01-04T04:41:54.714Z,79.62
2018-01-04T04:42:54.635Z,79.24
2018-01-04T04:43:54.538Z,79.52
2018-01-04T04:44:54.446Z,80.10
2018-01-04T04:45:54.358Z,80.10
2018-01-04T04:46:54.273Z,80.38
2018-01-04T04:47:54.227Z,80.76
2018-01-04T04:48:54.104Z,80.76
2018-01-04T04:49:54.005Z,80.38
2018-01-04T04:50:53.915Z,81.14
2018-01-04T04:51:53.823Z,80.38
2018-01-04T04:52:53.736Z,80.95
2018-01-04T04:53:53.650Z,81.24
2018-01-04T04:54:53.563Z,81.43
2018-01-04T04:55:53.498Z,82.19
2018-01-04T04:56:53.382Z,82.86
2018-01-04T04:57:53.296Z,82.76
2018-01-04T04:58:53.203Z,82.95
2018-01-04T04:59:53.114Z,83.10
2018-01-04T05:00:53.032Z,83.23
2018-01-04T05:01:52.948Z,83.04
2018-01-04T05:02:52.846Z,82.95
2018-01-04T05:03:52.759Z,83.14
2018-01-04T05:04:52.666Z,82.86
2018-01-04T05:05:52.581Z,82.95
2018-01-04T05:06:52.499Z,83.58
2018-01-04T05:07:52.402Z,83.58
2018-01-04T05:08:52.311Z,83.67
2018-01-04T05:09:52.224Z,83.62
2018-01-04T05:10:52.154Z,83.90
2018-01-04T05:11:52.045Z,83.95
2018-01-04T05:12:51.972Z,84.52
2018-01-04T05:13:52.006Z,84.62
2018-01-04T05:14:51.775Z,84.62
2018-01-04T05:15:51.684Z,84.09
2018-01-04T05:16:51.596Z,84.05
2018-01-04T05:17:51.509Z,84.28
2018-01-04T05:18:51.422Z,83.62
2018-01-04T05:19:51.338Z,84.19
2018-01-04T05:20:51.259Z,84.43
2018-01-04T05:21:51.151Z,85.28
2018-01-04T05:22:51.062Z,85.80
2018-01-04T05:23:50.972Z,85.52
2018-01-04T05:24:50.888Z,85.04
2018-01-04T05:25:50.801Z,85.80
2018-01-04T05:26:50.711Z,84.95
2018-01-04T05:27:50.684Z,85.76
2018-01-04T05:28:50.696Z,85.52
2018-01-04T05:29:50.450Z,84.85
2018-01-04T05:30:50.378Z,85.52
2018-01-04T05:31:50.278Z,86.18
2018-01-04T05:32:50.192Z,85.52
2018-01-04T05:33:50.103Z,85.71
2018-01-04T05:34:50.005Z,85.33
2018-01-04T05:35:49.918Z,85.52
2018-01-04T05:36:49.833Z,85.38
2018-01-04T05:37:49.768Z,87.09
2018-01-04T05:38:49.661Z,86.80
2018-01-04T05:39:49.567Z,87.09
2018-01-04T05:40:49.518Z,87.13
2018-01-04T05:41:49.455Z,86.38
2018-01-04T05:42:49.302Z,86.66
2018-01-04T05:43:49.216Z,85.99
2018-01-04T05:44:49.126Z,86.47
2018-01-04T05:45:49.038Z,86.94
2018-01-04T05:46:48.949Z,86.57
2018-01-04T05:47:48.861Z,86.76
2018-01-04T05:48:48.774Z,86.47
2018-01-04T05:49:48.689Z,86.57
2018-01-04T05:50:48.610Z,86.90
2018-01-04T05:51:48.512Z,87.38
2018-01-04T05:52:48.434Z,87.38
2018-01-04T05:53:48.342Z,88.04
2018-01-04T05:54:48.244Z,87.85
2018-01-04T05:55:48.158Z,88.13
2018-01-04T05:56:48.065Z,87.95
2018-01-04T05:57:47.978Z,88.23
2018-01-04T05:58:47.887Z,87.95
2018-01-04T05:59:47.810Z,88.23
2018-01-04T06:00:47.728Z,88.61
2018-01-04T06:01:47.624Z,88.90
2018-01-04T06:02:47.530Z,88.61
2018-01-04T06:03:47.443Z,87.85
2018-01-04T06:04:47.360Z,87.76
2018-01-04T06:05:47.283Z,88.90
2018-01-04T06:06:47.203Z,88.23
2018-01-04T06:07:47.088Z,87.76
2018-01-04T06:08:47.002Z,87.80
2018-01-04T06:09:46.908Z,87.90
2018-01-04T06:10:46.822Z,87.32
2018-01-04T06:11:46.732Z,87.32
2018-01-04T06:12:46.652Z,86.76
2018-01-04T06:13:46.568Z,87.19
2018-01-04T06:14:46.471Z,87.28
2018-01-04T06:15:46.381Z,87.66
2018-01-04T06:16:46.339Z,88.04
2018-01-04T06:17:46.210Z,87.57
2018-01-04T06:18:46.117Z,87.23
2018-01-04T06:19:46.030Z,86.66
2018-01-04T06:20:46.076Z,87.13
2018-01-04T06:21:45.853Z,86.94
2018-01-04T06:22:45.765Z,87.13
2018-01-04T06:23:45.674Z,86.47
2018-01-04T06:24:45.588Z,86.66
2018-01-04T06:25:45.502Z,86.47
2018-01-04T06:26:45.416Z,86.57
2018-01-04T06:27:45.334Z,86.94
2018-01-04T06:28:45.238Z,87.23
2018-01-04T06:29:45.154Z,87.23
2018-01-04T06:30:45.061Z,87.32
2018-01-04T06:31:44.977Z,86.90
2018-01-04T06:32:44.886Z,86.94
2018-01-04T06:33:44.795Z,86.57
2018-01-04T06:34:44.707Z,86.94
2018-01-04T06:35:44.621Z,87.38
2018-01-04T06:36:44.533Z,86.85
2018-01-04T06:37:44.456Z,87.28
2018-01-04T06:38:44.360Z,86.90
2018-01-04T06:39:44.278Z,86.85
2018-01-04T06:40:44.176Z,86.66
2018-01-04T06:41:44.093Z,87.23
2018-01-04T06:42:44.003Z,86.94
2018-01-04T06:43:43.916Z,86.66
2018-01-04T06:44:43.829Z,86.28
2018-01-04T06:45:43.749Z,86.47
2018-01-04T06:46:43.657Z,86.47
2018-01-04T06:47:43.561Z,86.57
2018-01-04T06:48:43.494Z,85.99
2018-01-04T06:49:43.384Z,85.61
2018-01-04T06:50:43.306Z,85.52
2018-01-04T06:51:43.209Z,86.66
2018-01-04T06:52:43.124Z,86.18
2018-01-04T06:53:43.038Z,86.66
2018-01-04T06:54:42.973Z,85.90
2018-01-04T06:55:42.863Z,85.90
2018-01-04T06:56:42.774Z,85.52
2018-01-04T06:57:42.685Z,86.18
2018-01-04T06:58:42.602Z,86.09
2018-01-04T06:59:42.506Z,86.76
2018-01-04T07:00:42.421Z,87.09
2018-01-04T07:01:42.495Z,87.19
2018-01-04T07:02:42.324Z,86.99
2018-01-04T07:03:42.237Z,87.13
2018-01-04T07:04:42.127Z,87.13
2018-01-04T07:05:41.980Z,87.04
2018-01-04T07:06:41.898Z,86.47
2018-01-04T07:07:41.807Z,87.04
2018-01-04T07:08:41.724Z,86.57
2018-01-04T07:09:41.631Z,86.57
2018-01-04T07:10:41.557Z,86.94
2018-01-04T07:11:41.571Z,86.94
2018-01-04T07:12:41.371Z,87.04
2018-01-04T07:13:41.288Z,86.47
2018-01-04T07:14:41.193Z,86.57
2018-01-04T07:15:41.100Z,86.66
2018-01-04T07:16:41.115Z,86.94
2018-01-04T07:17:40.947Z,86.57
2018-01-04T07:18:40.847Z,86.57
2018-01-04T07:19:40.753Z,86.47
2018-01-04T07:20:40.703Z,86.18
2018-01-04T07:21:40.576Z,86.18
2018-01-04T07:22:40.491Z,86.57
2018-01-04T07:23:40.400Z,87.13
2018-01-04T07:24:40.318Z,86.94
2018-01-04T07:25:40.231Z,86.66
2018-01-04T07:26:40.141Z,86.94
2018-01-04T07:27:40.051Z,86.47
2018-01-04T07:28:39.962Z,86.28
2018-01-04T07:29:39.873Z,87.13
2018-01-04T07:30:39.791Z,87.32
2018-01-04T07:31:39.698Z,86.76
2018-01-04T07:32:39.677Z,86.94
2018-01-04T07:33:39.560Z,86.66
2018-01-04T07:34:39.478Z,86.94
2018-01-04T07:35:39.346Z,86.66
2018-01-04T07:36:39.268Z,86.57
2018-01-04T07:37:39.172Z,86.57
2018-01-04T07:38:39.096Z,86.18
2018-01-04T07:39:38.999Z,86.18
2018-01-04T07:40:38.912Z,86.47
2018-01-04T07:41:38.821Z,87.13
2018-01-04T07:42:38.736Z,87.13
2018-01-04T07:43:38.831Z,86.66
2018-01-04T07:44:38.557Z,86.38
2018-01-04T07:45:38.531Z,85.80
2018-01-04T07:46:38.384Z,86.09
2018-01-04T07:47:38.300Z,86.57
2018-01-04T07:48:38.219Z,85.90
2018-01-04T07:49:38.125Z,86.18
2018-01-04T07:50:38.036Z,86.04
2018-01-04T07:51:38.086Z,85.28
2018-01-04T07:52:37.864Z,85.71
2018-01-04T07:53:37.770Z,86.28
2018-01-04T07:54:37.684Z,86.28
2018-01-04T07:55:37.598Z,86.04
2018-01-04T07:56:37.524Z,85.52
2018-01-04T07:57:37.427Z,85.66
2018-01-04T07:58:37.332Z,85.42
2018-01-04T07:59:37.245Z,85.28
2018-01-04T08:00:37.157Z,85.75
2018-01-04T08:01:37.129Z,84.99
2018-01-04T08:02:36.996Z,84.89
2018-01-04T08:03:36.897Z,84.95
2018-01-04T08:04:36.817Z,85.85
2018-01-04T08:05:36.727Z,85.66
2018-01-04T08:06:36.640Z,85.08
2018-01-04T08:07:36.551Z,84.70
2018-01-04T08:08:36.463Z,85.08
2018-01-04T08:09:36.380Z,84.99
2018-01-04T08:10:36.293Z,84.80
2018-01-04T08:11:36.230Z,85.28
2018-01-04T08:12:36.125Z,84.89
2018-01-04T08:13:36.047Z,84.13
2018-01-04T08:14:35.946Z,84.61
2018-01-04T08:15:35.869Z,84.42
2018-01-04T08:16:35.787Z,84.70
2018-01-04T08:17:35.680Z,84.89
2018-01-04T08:18:35.604Z,84.52
2018-01-04T08:19:35.508Z,83.94
2018-01-04T08:20:35.446Z,84.33
2018-01-04T08:21:35.380Z,84.13
2018-01-04T08:22:35.281Z,84.80
2018-01-04T08:23:35.166Z,84.99
2018-01-04T08:24:35.080Z,84.89
2018-01-04T08:25:34.998Z,84.70
2018-01-04T08:26:34.911Z,84.52
2018-01-04T08:27:34.820Z,84.61
2018-01-04T08:28:34.733Z,84.70
2018-01-04T08:29:34.648Z,84.80
2018-01-04T08:30:34.564Z,84.99
2018-01-04T08:31:34.477Z,84.89
2018-01-04T08:32:34.388Z,84.99
2018-01-04T08:33:34.308Z,84.89
2018-01-04T08:34:34.212Z,84.99
2018-01-04T08:35:34.164Z,84.70
2018-01-04T08:36:34.056Z,84.89
2018-01-04T08:37:33.962Z,84.99
2018-01-04T08:38:33.868Z,85.37
2018-01-04T08:39:33.781Z,85.37
2018-01-04T08:40:33.712Z,85.47
2018-01-04T08:41:33.615Z,85.70
2018-01-04T08:42:33.523Z,84.94
2018-01-04T08:43:33.439Z,85.18
2018-01-04T08:44:33.354Z,85.75
2018-01-04T08:45:33.271Z,85.66
2018-01-04T08:46:33.178Z,86.13
2018-01-04T08:47:33.093Z,86.80
2018-01-04T08:48:33.014Z,86.65
2018-01-04T08:49:32.920Z,86.42
2018-01-04T08:50:32.852Z,86.51
2018-01-04T08:51:32.747Z,86.70
2018-01-04T08:52:32.663Z,86.80
2018-01-04T08:53:32.595Z,86.65
2018-01-04T08:54:32.493Z,86.84
2018-01-04T08:55:32.407Z,87.03
2018-01-04T08:56:32.320Z,87.13
2018-01-04T08:57:32.237Z,87.03
2018-01-04T08:58:32.147Z,86.46
2018-01-04T08:59:32.061Z,87.32
2018-01-04T09:00:31.979Z,87.23
2018-01-04T09:01:31.890Z,87.13
2018-01-04T09:02:31.883Z,86.55
2018-01-04T09:03:31.722Z,86.75
2018-01-04T09:04:31.628Z,86.46
2018-01-04T09:05:31.544Z,87.60
2018-01-04T09:06:31.459Z,87.74
2018-01-04T09:07:31.398Z,88.98
2018-01-04T09:08:31.298Z,87.89
2018-01-04T09:09:31.201Z,89.07
2018-01-04T09:10:31.114Z,87.74
2018-01-04T09:11:31.029Z,89.26
2018-01-04T09:12:30.949Z,88.12
2018-01-04T09:13:30.860Z,87.98
2018-01-04T09:14:30.773Z,88.03
2018-01-04T09:15:30.691Z,88.27
2018-01-04T09:16:30.622Z,88.08
2018-01-04T09:17:30.513Z,87.51
2018-01-04T09:18:30.424Z,87.98
2018-01-04T09:19:30.397Z,88.27
2018-01-04T09:20:30.256Z,87.98
2018-01-04T09:21:30.176Z,88.08
2018-01-04T09:22:30.122Z,88.18
2018-01-04T09:23:30.002Z,88.08
2018-01-04T09:24:29.911Z,88.18
2018-01-04T09:25:29.836Z,88.84
2018-01-04T09:26:29.735Z,89.32
2018-01-04T09:27:29.676Z,88.75
2018-01-04T09:28:29.586Z,88.93
2018-01-04T09:29:29.524Z,89.03
2018-01-04T09:30:29.395Z,89.22
2018-01-04T09:31:29.307Z,88.65
2018-01-04T09:32:29.226Z,88.56
2018-01-04T09:33:29.135Z,88.75
2018-01-04T09:34:29.060Z,88.75
2018-01-04T09:35:28.982Z,88.75
2018-01-04T09:36:28.898Z,89.22
2018-01-04T09:37:28.800Z,89.03
2018-01-04T09:38:28.710Z,89.03
2018-01-04T09:39:28.621Z,89.41
2018-01-04T09:40:28.534Z,89.41
2018-01-04T09:41:28.506Z,89.03
2018-01-04T09:42:28.362Z,89.79
2018-01-04T09:43:28.276Z,89.79
2018-01-04T09:44:28.203Z,89.70
2018-01-04T09:45:28.107Z,89.13
2018-01-04T09:46:28.028Z,89.79
2018-01-04T09:47:27.936Z,89.61
2018-01-04T09:48:27.853Z,89.89
2018-01-04T09:49:27.758Z,88.93
2018-01-04T09:50:27.720Z,89.51
2018-01-04T09:51:27.614Z,89.51
2018-01-04T09:52:27.512Z,89.98
2018-01-04T09:53:27.421Z,89.70
2018-01-04T09:54:27.333Z,89.55
2018-01-04T09:55:27.256Z,89.79
2018-01-04T09:56:27.173Z,89.36
2018-01-04T09:57:27.088Z,89.55
2018-01-04T09:58:26.994Z,89.36
2018-01-04T09:59:26.906Z,89.55
2018-01-04T10:00:26.823Z,89.41
2018-01-04T10:01:26.751Z,89.36
2018-01-04T10:02:26.686Z,89.65
2018-01-04T10:03:26.615Z,89.13
2018-01-04T10:04:26.487Z,89.70
2018-01-04T10:05:26.587Z,89.26
2018-01-04T10:06:26.385Z,89.36
2018-01-04T10:07:26.239Z,89.26
2018-01-04T10:08:26.139Z,88.89
2018-01-04T10:09:26.059Z,89.17
2018-01-04T10:10:26.015Z,89.17
2018-01-04T10:11:25.888Z,89.84
2018-01-04T10:12:25.803Z,89.36
2018-01-04T10:13:25.719Z,89.36
2018-01-04T10:14:25.648Z,89.84
2018-01-04T10:15:25.553Z,89.65
2018-01-04T10:16:25.466Z,89.75
2018-01-04T10:17:25.378Z,90.41
2018-01-04T10:18:25.293Z,89.84
2018-01-04T10:19:25.208Z,88.98
2018-01-04T10:20:25.122Z,89.84
2018-01-04T10:21:25.069Z,89.75
2018-01-04T10:22:25.014Z,89.94
2018-01-04T10:23:24.873Z,89.84
2018-01-04T10:24:24.787Z,89.46
2018-01-04T10:25:24.713Z,89.75
2018-01-04T10:26:24.645Z,89.26
2018-01-04T10:27:24.525Z,89.26
2018-01-04T10:28:24.447Z,89.36
2018-01-04T10:29:24.358Z,89.46
2018-01-04T10:30:24.281Z,89.26
2018-01-04T10:31:24.201Z,89.36
2018-01-04T10:32:24.109Z,89.65
2018-01-04T10:33:24.029Z,89.75
2018-01-04T10:34:23.936Z,90.03
2018-01-04T10:35:23.852Z,89.84
2018-01-04T10:36:23.767Z,89.75
2018-01-04T10:37:23.681Z,89.17
2018-01-04T10:38:23.600Z,89.84
2018-01-04T10:39:23.510Z,89.84
2018-01-04T10:40:23.498Z,90.79
2018-01-04T10:41:23.341Z,89.26
2018-01-04T10:42:23.296Z,89.55
2018-01-04T10:43:23.176Z,90.79
2018-01-04T10:44:23.088Z,90.70
2018-01-04T10:45:23.006Z,90.03
2018-01-04T10:46:22.919Z,89.07
2018-01-04T10:47:22.911Z,89.55
2018-01-04T10:48:22.747Z,89.65
2018-01-04T10:49:22.709Z,89.55
2018-01-04T10:50:22.608Z,90.03
2018-01-04T10:51:22.501Z,90.60
2018-01-04T10:52:22.403Z,90.08
2018-01-04T10:53:22.322Z,90.64
2018-01-04T10:54:22.235Z,90.17
2018-01-04T10:55:22.158Z,89.79
2018-01-04T10:56:22.077Z,89.60
2018-01-04T10:57:22.065Z,89.22
2018-01-04T10:58:21.930Z,89.69
2018-01-04T10:59:22.019Z,90.08
2018-01-04T11:00:21.731Z,89.69
2018-01-04T11:01:21.661Z,91.13
2018-01-04T11:02:21.562Z,89.69
2018-01-04T11:03:21.475Z,89.69
2018-01-04T11:04:21.429Z,89.98
2018-01-04T11:05:21.308Z,89.98
2018-01-04T11:06:21.226Z,89.79
2018-01-04T11:07:21.138Z,90.26
2018-01-04T11:08:21.053Z,90.17
2018-01-04T11:09:20.970Z,89.79
2018-01-04T11:10:20.888Z,89.69
2018-01-04T11:11:20.801Z,89.60
2018-01-04T11:12:20.718Z,89.89
2018-01-04T11:13:20.636Z,89.98
2018-01-04T11:14:20.548Z,90.08
2018-01-04T11:15:20.532Z,91.03
2018-01-04T11:16:20.386Z,90.08
2018-01-04T11:17:20.294Z,90.45
2018-01-04T11:18:20.233Z,90.64
2018-01-04T11:19:20.130Z,91.79
2018-01-04T11:20:20.039Z,91.55
2018-01-04T11:21:19.968Z,91.50
2018-01-04T11:22:19.868Z,90.93
2018-01-04T11:23:19.783Z,91.60
2018-01-04T11:24:19.730Z,91.36
2018-01-04T11:25:19.619Z,91.27
2018-01-04T11:26:19.533Z,91.84
2018-01-04T11:27:19.447Z,92.03
2018-01-04T11:28:19.429Z,91.55
2018-01-04T11:29:19.285Z,91.94
2018-01-04T11:30:19.238Z,91.65
2018-01-04T11:31:19.114Z,92.50
2018-01-04T11:32:19.070Z,92.22
2018-01-04T11:33:18.941Z,92.22
2018-01-04T11:34:18.851Z,91.84
2018-01-04T11:35:18.767Z,91.55
2018-01-04T11:36:18.678Z,91.98
2018-01-04T11:37:18.604Z,91.65
2018-01-04T11:38:18.509Z,91.65
2018-01-04T11:39:18.427Z,91.65
2018-01-04T11:40:18.354Z,91.31
2018-01-04T11:41:18.258Z,92.13
2018-01-04T11:42:18.165Z,92.13
2018-01-04T11:43:18.086Z,91.55
2018-01-04T11:44:18.006Z,92.60
2018-01-04T11:45:17.914Z,92.79
2018-01-04T11:46:17.832Z,92.98
2018-01-04T11:47:17.750Z,92.27
2018-01-04T11:48:17.663Z,92.69
2018-01-04T11:49:17.597Z,92.41
2018-01-04T11:50:17.498Z,93.65
2018-01-04T11:51:17.404Z,93.74
2018-01-04T11:52:17.348Z,93.08
2018-01-04T11:53:17.238Z,93.08
2018-01-04T11:54:17.169Z,92.69
2018-01-04T11:55:17.147Z,93.37
2018-01-04T11:56:17.036Z,93.08
2018-01-04T11:57:16.931Z,93.65
2018-01-04T11:58:16.813Z,93.08
2018-01-04T11:59:16.728Z,93.46
2018-01-04T12:00:16.682Z,93.46
2018-01-04T12:01:16.555Z,93.46
2018-01-04T12:02:16.487Z,92.98
2018-01-04T12:03:16.535Z,93.84
2018-01-04T12:04:16.300Z,93.27
2018-01-04T12:05:16.223Z,93.37
2018-01-04T12:06:16.149Z,94.22
2018-01-04T12:07:16.063Z,95.08
2018-01-04T12:08:15.960Z,94.70
2018-01-04T12:09:15.874Z,95.17
2018-01-04T12:10:15.850Z,96.32
2018-01-04T12:11:15.765Z,96.32
2018-01-04T12:12:15.617Z,96.32
2018-01-04T12:13:15.536Z,94.98
2018-01-04T12:14:15.448Z,95.08
2018-01-04T12:15:15.364Z,94.89
2018-01-04T12:16:15.286Z,94.89
2018-01-04T12:17:15.199Z,95.08
2018-01-04T12:18:15.108Z,95.75
2018-01-04T12:19:15.022Z,94.89
2018-01-04T12:20:14.939Z,94.65
2018-01-04T12:21:14.856Z,94.74
2018-01-04T12:22:14.768Z,95.51
2018-01-04T12:23:14.685Z,95.03
2018-01-04T12:24:14.601Z,95.12
2018-01-04T12:25:14.516Z,96.08
2018-01-04T12:26:14.460Z,96.94
2018-01-04T12:27:14.358Z,96.65
2018-01-04T12:28:14.340Z,97.41
2018-01-04T12:29:14.175Z,96.46
2018-01-04T12:30:14.094Z,97.51
2018-01-04T12:31:14.006Z,97.41
2018-01-04T12:32:13.922Z,98.08
2018-01-04T12:33:13.833Z,98.27
2018-01-04T12:34:13.897Z,97.61
2018-01-04T12:35:13.660Z,98.08
2018-01-04T12:36:13.578Z,98.08
2018-01-04T12:37:13.503Z,99.22
2018-01-04T12:38:13.408Z,99.51
2018-01-04T12:39:13.326Z,99.41
2018-01-04T12:40:13.253Z,98.27
2018-01-04T12:41:13.161Z,98.75
2018-01-04T12:42:13.063Z,99.04
2018-01-04T12:43:12.989Z,99.32
2018-01-04T12:44:12.896Z,98.85
2018-01-04T12:45:12.806Z,99.41
2018-01-04T12:46:12.726Z,99.60
2018-01-04T12:47:12.642Z,99.41
2018-01-04T12:48:12.559Z,99.60
2018-01-04T12:49:12.470Z,99.60
2018-01-04T12:50:12.378Z,99.99
2018-01-04T12:51:12.295Z,99.89